SAS69P EKCH-LEPA
Flight info
| Callsign | SAS69P |
|---|---|
| Flight time | 2h 34m |
| Altitude | 34000 |
| Route | NEXEN T503 GIMRU DCT MICOS DCT WRB DCT XAROL DCT BOMBI DCT GIGET DCT ABUKA DCT KRH DCT NATOR DCT LUTIX DCT BENOT DCT NEMOS DCT GEVEA/N0440F350 DCT INCUS DCT BALSI DCT RETNO DCT TUPOX DCT MTG DCT DIVKO DCT VATIR N852 VERSO L129 LUNIK |
| Aircraft | A320/M-SDE1FGHIJ1RWXYZ/LB1 |
Departure
| Time | 2026-04-25 08:28 |
|---|---|
| Airport | Copenhagen Kastrup Airport (EKCH) |
Arrival
| Time | 2026-04-25 11:03 |
|---|---|
| Airport | Palma de Mallorca Airport (LEPA) |
| Time | Latitude | Longitude | Altitude | Speed | Heading |
|---|---|---|---|---|---|
| 2026-04-25 07:28 | 55.62737 | 12.65181 | 17 ft | 0 kts | 356° |
| 2026-04-25 08:17 | 55.62715 | 12.65184 | 17 ft | 4 kts | 356° |
| 2026-04-25 08:17 | 55.62693 | 12.65186 | 17 ft | 4 kts | 349° |
| 2026-04-25 08:17 | 55.62668 | 12.65202 | 17 ft | 4 kts | 321° |
| 2026-04-25 08:18 | 55.62653 | 12.65236 | 17 ft | 4 kts | 281° |
| 2026-04-25 08:18 | 55.62652 | 12.65272 | 17 ft | 4 kts | 277° |
| 2026-04-25 08:18 | 55.62643 | 12.65311 | 17 ft | 4 kts | 330° |
| 2026-04-25 08:18 | 55.62619 | 12.65321 | 17 ft | 4 kts | 359° |
| 2026-04-25 08:19 | 55.62596 | 12.65322 | 19 ft | 1 kts | 359° |
| 2026-04-25 08:21 | 55.62607 | 12.65322 | 19 ft | 3 kts | 359° |
| 2026-04-25 08:21 | 55.62634 | 12.65309 | 17 ft | 5 kts | 332° |
| 2026-04-25 08:22 | 55.62648 | 12.65246 | 17 ft | 7 kts | 266° |
| 2026-04-25 08:22 | 55.62611 | 12.65194 | 17 ft | 8 kts | 185° |
| 2026-04-25 08:22 | 55.62548 | 12.65197 | 17 ft | 10 kts | 179° |
| 2026-04-25 08:22 | 55.62473 | 12.65199 | 17 ft | 12 kts | 179° |
| 2026-04-25 08:23 | 55.62387 | 12.65203 | 17 ft | 13 kts | 178° |
| 2026-04-25 08:23 | 55.62301 | 12.65196 | 18 ft | 12 kts | 207° |
| 2026-04-25 08:23 | 55.62281 | 12.65062 | 19 ft | 13 kts | 290° |
| 2026-04-25 08:23 | 55.62332 | 12.64917 | 19 ft | 15 kts | 303° |
| 2026-04-25 08:24 | 55.62339 | 12.64764 | 17 ft | 13 kts | 246° |
| 2026-04-25 08:24 | 55.62297 | 12.64606 | 17 ft | 15 kts | 245° |
| 2026-04-25 08:24 | 55.62250 | 12.64424 | 17 ft | 17 kts | 244° |
| 2026-04-25 08:24 | 55.62164 | 12.64318 | 16 ft | 14 kts | 205° |
| 2026-04-25 08:25 | 55.62076 | 12.64245 | 17 ft | 14 kts | 205° |
| 2026-04-25 08:25 | 55.61986 | 12.64170 | 17 ft | 14 kts | 206° |
| 2026-04-25 08:25 | 55.61908 | 12.64103 | 17 ft | 11 kts | 206° |
| 2026-04-25 08:25 | 55.61832 | 12.64070 | 17 ft | 12 kts | 178° |
| 2026-04-25 08:26 | 55.61752 | 12.64081 | 18 ft | 11 kts | 175° |
| 2026-04-25 08:26 | 55.61677 | 12.64090 | 21 ft | 10 kts | 176° |
| 2026-04-25 08:26 | 55.61620 | 12.64067 | 21 ft | 7 kts | 221° |
| 2026-04-25 08:26 | 55.61609 | 12.64050 | 21 ft | 0 kts | 220° |
| 2026-04-25 08:27 | 55.61607 | 12.64047 | 21 ft | 2 kts | 220° |
| 2026-04-25 08:27 | 55.61498 | 12.63878 | 19 ft | 53 kts | 221° |
| 2026-04-25 08:27 | 55.61056 | 12.63194 | 21 ft | 113 kts | 221° |
| 2026-04-25 08:28 | 55.60344 | 12.62091 | 17 ft | 158 kts | 221° |
| 2026-04-25 08:28 | 55.59476 | 12.60772 | 404 ft | 163 kts | 225° |
| 2026-04-25 08:28 | 55.58631 | 12.59478 | 1022 ft | 160 kts | 227° |
| 2026-04-25 08:28 | 55.57791 | 12.58177 | 1510 ft | 164 kts | 227° |
| 2026-04-25 08:29 | 55.56887 | 12.56791 | 1789 ft | 180 kts | 224° |
| 2026-04-25 08:29 | 55.55838 | 12.55420 | 2170 ft | 195 kts | 221° |
| 2026-04-25 08:29 | 55.54667 | 12.53957 | 2462 ft | 218 kts | 222° |
| 2026-04-25 08:29 | 55.53375 | 12.52345 | 2894 ft | 237 kts | 221° |
| 2026-04-25 08:30 | 55.51977 | 12.50626 | 3458 ft | 251 kts | 221° |
| 2026-04-25 08:30 | 55.50518 | 12.48854 | 4179 ft | 258 kts | 221° |
| 2026-04-25 08:30 | 55.49024 | 12.47051 | 4948 ft | 262 kts | 221° |
| 2026-04-25 08:30 | 55.47510 | 12.45220 | 5713 ft | 266 kts | 221° |
| 2026-04-25 08:31 | 55.45976 | 12.43358 | 6471 ft | 270 kts | 221° |
| 2026-04-25 08:31 | 55.44442 | 12.41493 | 7212 ft | 273 kts | 221° |
| 2026-04-25 08:31 | 55.42868 | 12.39574 | 7944 ft | 276 kts | 222° |
| 2026-04-25 08:31 | 55.41274 | 12.37636 | 8659 ft | 281 kts | 222° |
| 2026-04-25 08:32 | 55.39660 | 12.35670 | 9362 ft | 284 kts | 223° |
| 2026-04-25 08:32 | 55.38029 | 12.33683 | 10061 ft | 287 kts | 223° |
| 2026-04-25 08:32 | 55.36334 | 12.31601 | 10295 ft | 308 kts | 223° |
| 2026-04-25 08:32 | 55.34516 | 12.29365 | 10479 ft | 328 kts | 222° |
| 2026-04-25 08:33 | 55.32616 | 12.27055 | 10990 ft | 335 kts | 222° |
| 2026-04-25 08:33 | 55.30680 | 12.24722 | 11604 ft | 339 kts | 222° |
| 2026-04-25 08:33 | 55.28724 | 12.22374 | 12263 ft | 342 kts | 222° |
| 2026-04-25 08:33 | 55.26754 | 12.20013 | 12887 ft | 344 kts | 222° |
| 2026-04-25 08:34 | 55.24768 | 12.17636 | 13499 ft | 347 kts | 222° |
| 2026-04-25 08:34 | 55.22769 | 12.15235 | 14125 ft | 350 kts | 222° |
| 2026-04-25 08:34 | 55.20753 | 12.12811 | 14710 ft | 353 kts | 222° |
| 2026-04-25 08:34 | 55.18732 | 12.10339 | 15272 ft | 355 kts | 223° |
| 2026-04-25 08:35 | 55.16729 | 12.07794 | 15834 ft | 356 kts | 224° |
| 2026-04-25 08:35 | 55.14730 | 12.05209 | 16381 ft | 359 kts | 224° |
| 2026-04-25 08:35 | 55.12719 | 12.02597 | 16908 ft | 362 kts | 224° |
| 2026-04-25 08:35 | 55.10687 | 11.99966 | 17434 ft | 365 kts | 224° |
| 2026-04-25 08:36 | 55.08636 | 11.97330 | 17964 ft | 367 kts | 224° |
| 2026-04-25 08:36 | 55.06568 | 11.94690 | 18501 ft | 370 kts | 223° |
| 2026-04-25 08:36 | 55.04481 | 11.92037 | 19025 ft | 373 kts | 223° |
| 2026-04-25 08:36 | 55.02376 | 11.89368 | 19546 ft | 376 kts | 223° |
| 2026-04-25 08:37 | 55.00252 | 11.86677 | 20057 ft | 379 kts | 223° |
| 2026-04-25 08:37 | 54.98119 | 11.83974 | 20567 ft | 381 kts | 223° |
| 2026-04-25 08:37 | 54.95966 | 11.81250 | 21042 ft | 384 kts | 223° |
| 2026-04-25 08:37 | 54.93826 | 11.78548 | 21498 ft | 386 kts | 223° |
| 2026-04-25 08:38 | 54.91642 | 11.75800 | 21966 ft | 389 kts | 223° |
| 2026-04-25 08:38 | 54.89439 | 11.73027 | 22419 ft | 391 kts | 223° |
| 2026-04-25 08:38 | 54.87231 | 11.70252 | 22841 ft | 393 kts | 223° |
| 2026-04-25 08:38 | 54.85005 | 11.67459 | 23261 ft | 396 kts | 223° |
| 2026-04-25 08:39 | 54.82764 | 11.64647 | 23673 ft | 399 kts | 223° |
| 2026-04-25 08:39 | 54.80509 | 11.61822 | 24064 ft | 401 kts | 222° |
| 2026-04-25 08:39 | 54.78238 | 11.58984 | 24456 ft | 403 kts | 222° |
| 2026-04-25 08:39 | 54.75948 | 11.56122 | 24825 ft | 405 kts | 222° |
| 2026-04-25 08:40 | 54.73653 | 11.53255 | 25181 ft | 408 kts | 222° |
| 2026-04-25 08:40 | 54.71339 | 11.50371 | 25552 ft | 410 kts | 222° |
| 2026-04-25 08:40 | 54.69051 | 11.47522 | 25888 ft | 412 kts | 222° |
| 2026-04-25 08:40 | 54.66723 | 11.44623 | 26229 ft | 414 kts | 222° |
| 2026-04-25 08:41 | 54.64379 | 11.41710 | 26556 ft | 416 kts | 222° |
| 2026-04-25 08:41 | 54.62025 | 11.38789 | 26875 ft | 418 kts | 222° |
| 2026-04-25 08:41 | 54.59654 | 11.35861 | 27202 ft | 420 kts | 222° |
| 2026-04-25 08:41 | 54.57275 | 11.32931 | 27532 ft | 421 kts | 222° |
| 2026-04-25 08:42 | 54.54885 | 11.29988 | 27847 ft | 423 kts | 222° |
| 2026-04-25 08:42 | 54.52484 | 11.27048 | 28150 ft | 425 kts | 221° |
| 2026-04-25 08:42 | 54.50066 | 11.24101 | 28451 ft | 427 kts | 221° |
| 2026-04-25 08:42 | 54.47634 | 11.21151 | 28746 ft | 429 kts | 221° |
| 2026-04-25 08:43 | 54.45190 | 11.18198 | 29032 ft | 430 kts | 221° |
| 2026-04-25 08:43 | 54.42743 | 11.15246 | 29443 ft | 429 kts | 221° |
| 2026-04-25 08:43 | 54.40304 | 11.12307 | 29854 ft | 428 kts | 221° |
| 2026-04-25 08:43 | 54.37874 | 11.09373 | 30243 ft | 427 kts | 221° |
| 2026-04-25 08:44 | 54.35448 | 11.06444 | 30649 ft | 426 kts | 221° |
| 2026-04-25 08:44 | 54.33030 | 11.03521 | 31038 ft | 425 kts | 221° |
| 2026-04-25 08:44 | 54.30556 | 11.00723 | 31406 ft | 429 kts | 215° |
| 2026-04-25 08:44 | 54.27842 | 10.98525 | 31753 ft | 434 kts | 209° |
| 2026-04-25 08:45 | 54.25059 | 10.96511 | 32123 ft | 434 kts | 209° |
| 2026-04-25 08:45 | 54.22280 | 10.94513 | 32485 ft | 433 kts | 209° |
| 2026-04-25 08:45 | 54.19495 | 10.92518 | 32841 ft | 432 kts | 209° |
| 2026-04-25 08:45 | 54.16725 | 10.90533 | 33183 ft | 432 kts | 209° |
| 2026-04-25 08:46 | 54.13953 | 10.88543 | 33513 ft | 432 kts | 209° |
| 2026-04-25 08:46 | 54.11189 | 10.86547 | 33842 ft | 431 kts | 209° |
| 2026-04-25 08:46 | 54.08422 | 10.84550 | 34012 ft | 432 kts | 209° |
| 2026-04-25 08:47 | 54.02809 | 10.80505 | 34056 ft | 445 kts | 209° |
| 2026-04-25 08:47 | 53.97071 | 10.76401 | 34055 ft | 448 kts | 209° |
| 2026-04-25 08:48 | 53.91320 | 10.72332 | 34054 ft | 447 kts | 208° |
| 2026-04-25 08:48 | 53.85574 | 10.68267 | 34055 ft | 447 kts | 208° |
| 2026-04-25 08:49 | 53.79869 | 10.64218 | 34056 ft | 447 kts | 208° |
| 2026-04-25 08:49 | 53.74123 | 10.60159 | 34058 ft | 448 kts | 208° |
| 2026-04-25 08:50 | 53.68364 | 10.56109 | 34060 ft | 448 kts | 208° |
| 2026-04-25 08:50 | 53.62607 | 10.52080 | 34067 ft | 448 kts | 208° |
| 2026-04-25 08:51 | 53.56857 | 10.48063 | 34068 ft | 448 kts | 208° |
| 2026-04-25 08:51 | 53.51101 | 10.44037 | 34079 ft | 448 kts | 208° |
| 2026-04-25 08:52 | 53.45344 | 10.40026 | 34083 ft | 448 kts | 208° |
| 2026-04-25 08:52 | 53.39587 | 10.36029 | 34092 ft | 447 kts | 208° |
| 2026-04-25 08:53 | 53.33837 | 10.32048 | 34096 ft | 447 kts | 208° |
| 2026-04-25 08:53 | 53.28127 | 10.28106 | 34102 ft | 447 kts | 208° |
| 2026-04-25 08:54 | 53.22378 | 10.24166 | 34104 ft | 446 kts | 208° |
| 2026-04-25 08:54 | 53.16644 | 10.20244 | 34110 ft | 445 kts | 208° |
| 2026-04-25 08:55 | 53.10918 | 10.16328 | 34114 ft | 444 kts | 208° |
| 2026-04-25 08:55 | 53.05207 | 10.12423 | 34121 ft | 444 kts | 209° |
| 2026-04-25 08:56 | 53.00461 | 10.09192 | 34126 ft | 443 kts | 208° |
| 2026-04-25 08:56 | 52.94755 | 10.05338 | 34130 ft | 442 kts | 208° |
| 2026-04-25 08:57 | 52.89060 | 10.01498 | 34132 ft | 442 kts | 209° |
| 2026-04-25 08:57 | 52.83376 | 9.97659 | 34137 ft | 441 kts | 208° |
| 2026-04-25 08:58 | 52.77687 | 9.93820 | 34139 ft | 441 kts | 208° |
| 2026-04-25 08:58 | 52.72003 | 9.90023 | 34151 ft | 440 kts | 208° |
| 2026-04-25 08:59 | 52.66330 | 9.86234 | 34155 ft | 439 kts | 209° |
| 2026-04-25 08:59 | 52.60672 | 9.82451 | 34158 ft | 438 kts | 208° |
| 2026-04-25 09:00 | 52.55022 | 9.78701 | 34158 ft | 437 kts | 209° |
| 2026-04-25 09:00 | 52.49383 | 9.74966 | 34158 ft | 436 kts | 209° |
| 2026-04-25 09:01 | 52.43750 | 9.71239 | 34157 ft | 436 kts | 209° |
| 2026-04-25 09:01 | 52.38126 | 9.67530 | 34156 ft | 435 kts | 209° |
| 2026-04-25 09:02 | 52.32510 | 9.63834 | 34154 ft | 435 kts | 209° |
| 2026-04-25 09:02 | 52.26900 | 9.60147 | 34155 ft | 435 kts | 209° |
| 2026-04-25 09:03 | 52.21283 | 9.56479 | 34154 ft | 434 kts | 208° |
| 2026-04-25 09:03 | 52.15667 | 9.52825 | 34153 ft | 435 kts | 208° |
| 2026-04-25 09:04 | 52.10059 | 9.49181 | 34150 ft | 434 kts | 208° |
| 2026-04-25 09:04 | 52.04485 | 9.45569 | 34142 ft | 434 kts | 208° |
| 2026-04-25 09:05 | 51.98879 | 9.41937 | 34141 ft | 434 kts | 208° |
| 2026-04-25 09:05 | 51.93270 | 9.38317 | 34157 ft | 434 kts | 208° |
| 2026-04-25 09:06 | 51.87659 | 9.34704 | 34161 ft | 434 kts | 208° |
| 2026-04-25 09:06 | 51.82052 | 9.31111 | 34165 ft | 434 kts | 208° |
| 2026-04-25 09:07 | 51.76440 | 9.27527 | 34167 ft | 434 kts | 208° |
| 2026-04-25 09:07 | 51.70830 | 9.23945 | 34169 ft | 434 kts | 208° |
| 2026-04-25 09:08 | 51.65220 | 9.20374 | 34171 ft | 434 kts | 208° |
| 2026-04-25 09:08 | 51.59595 | 9.16802 | 34171 ft | 434 kts | 208° |
| 2026-04-25 09:09 | 51.53968 | 9.13235 | 34172 ft | 434 kts | 207° |
| 2026-04-25 09:09 | 51.48222 | 9.10270 | 34171 ft | 442 kts | 198° |
| 2026-04-25 09:10 | 51.42150 | 9.08201 | 34176 ft | 453 kts | 195° |
| 2026-04-25 09:10 | 51.35920 | 9.06096 | 34174 ft | 460 kts | 195° |
| 2026-04-25 09:11 | 51.26462 | 9.03303 | 34164 ft | 462 kts | 191° |
| 2026-04-25 09:11 | 51.20068 | 9.02139 | 34165 ft | 463 kts | 189° |
| 2026-04-25 09:12 | 51.13667 | 9.01051 | 34167 ft | 462 kts | 190° |
| 2026-04-25 09:12 | 51.07282 | 8.99834 | 34171 ft | 462 kts | 191° |
| 2026-04-25 09:13 | 51.00909 | 8.98534 | 34176 ft | 462 kts | 191° |
| 2026-04-25 09:13 | 50.94533 | 8.97244 | 34181 ft | 461 kts | 191° |
| 2026-04-25 09:14 | 50.88156 | 8.95995 | 34183 ft | 461 kts | 191° |
| 2026-04-25 09:14 | 50.81787 | 8.94741 | 34183 ft | 460 kts | 191° |
| 2026-04-25 09:15 | 50.75430 | 8.93491 | 34186 ft | 460 kts | 191° |
| 2026-04-25 09:15 | 50.69071 | 8.92245 | 34186 ft | 460 kts | 191° |
| 2026-04-25 09:16 | 50.62762 | 8.91014 | 34185 ft | 459 kts | 191° |
| 2026-04-25 09:16 | 50.56421 | 8.89789 | 34187 ft | 459 kts | 191° |
| 2026-04-25 09:17 | 50.46919 | 8.87957 | 34186 ft | 458 kts | 191° |
| 2026-04-25 09:18 | 50.40596 | 8.86737 | 34187 ft | 458 kts | 192° |
| 2026-04-25 09:18 | 50.34264 | 8.85503 | 34188 ft | 458 kts | 192° |
| 2026-04-25 09:19 | 50.27944 | 8.84278 | 34185 ft | 458 kts | 192° |
| 2026-04-25 09:19 | 50.21627 | 8.83062 | 34188 ft | 457 kts | 192° |
| 2026-04-25 09:20 | 50.15308 | 8.81865 | 34186 ft | 457 kts | 192° |
| 2026-04-25 09:20 | 50.08995 | 8.80669 | 34186 ft | 457 kts | 192° |
| 2026-04-25 09:21 | 50.02686 | 8.79454 | 34186 ft | 456 kts | 192° |
| 2026-04-25 09:21 | 49.96398 | 8.78145 | 34181 ft | 455 kts | 193° |
| 2026-04-25 09:22 | 49.90134 | 8.76811 | 34193 ft | 453 kts | 192° |
| 2026-04-25 09:22 | 49.83891 | 8.75506 | 34193 ft | 452 kts | 192° |
| 2026-04-25 09:23 | 49.77659 | 8.74228 | 34189 ft | 451 kts | 192° |
| 2026-04-25 09:23 | 49.71438 | 8.72945 | 34188 ft | 450 kts | 192° |
| 2026-04-25 09:24 | 49.65219 | 8.71674 | 34185 ft | 450 kts | 192° |
| 2026-04-25 09:24 | 49.59005 | 8.70425 | 34185 ft | 450 kts | 192° |
| 2026-04-25 09:25 | 49.52802 | 8.69174 | 34181 ft | 449 kts | 192° |
| 2026-04-25 09:25 | 49.46596 | 8.67934 | 34182 ft | 449 kts | 192° |
| 2026-04-25 09:26 | 49.40398 | 8.66688 | 34186 ft | 449 kts | 192° |
| 2026-04-25 09:26 | 49.34207 | 8.65435 | 34188 ft | 448 kts | 192° |
| 2026-04-25 09:27 | 49.28026 | 8.64181 | 34187 ft | 447 kts | 192° |
| 2026-04-25 09:27 | 49.21864 | 8.62935 | 34182 ft | 447 kts | 192° |
| 2026-04-25 09:28 | 49.15705 | 8.61698 | 34180 ft | 446 kts | 192° |
| 2026-04-25 09:28 | 49.09546 | 8.60472 | 34176 ft | 446 kts | 191° |
| 2026-04-25 09:29 | 49.03395 | 8.59263 | 34170 ft | 445 kts | 191° |
| 2026-04-25 09:29 | 48.97277 | 8.57942 | 34165 ft | 443 kts | 194° |
| 2026-04-25 09:30 | 48.91296 | 8.56071 | 34165 ft | 441 kts | 197° |
| 2026-04-25 09:30 | 48.85322 | 8.53963 | 34166 ft | 441 kts | 196° |
| 2026-04-25 09:31 | 48.79331 | 8.51937 | 34169 ft | 440 kts | 195° |
| 2026-04-25 09:31 | 48.73336 | 8.50012 | 34172 ft | 440 kts | 195° |
| 2026-04-25 09:32 | 48.67351 | 8.48112 | 34175 ft | 439 kts | 195° |
| 2026-04-25 09:32 | 48.61369 | 8.46204 | 34178 ft | 439 kts | 195° |
| 2026-04-25 09:33 | 48.55386 | 8.44289 | 34180 ft | 439 kts | 195° |
| 2026-04-25 09:33 | 48.49412 | 8.42383 | 34177 ft | 438 kts | 194° |
| 2026-04-25 09:34 | 48.43448 | 8.40490 | 34177 ft | 438 kts | 194° |
| 2026-04-25 09:34 | 48.37490 | 8.38597 | 34181 ft | 438 kts | 194° |
| 2026-04-25 09:35 | 48.31529 | 8.36713 | 34179 ft | 437 kts | 194° |
| 2026-04-25 09:35 | 48.25575 | 8.34831 | 34175 ft | 437 kts | 194° |
| 2026-04-25 09:36 | 48.19625 | 8.32941 | 34172 ft | 437 kts | 197° |
| 2026-04-25 09:36 | 48.14117 | 8.29345 | 34173 ft | 431 kts | 214° |
| 2026-04-25 09:37 | 48.09085 | 8.24466 | 34171 ft | 430 kts | 214° |
| 2026-04-25 09:37 | 48.04895 | 8.20439 | 34169 ft | 431 kts | 214° |
| 2026-04-25 09:38 | 47.99848 | 8.15596 | 34168 ft | 431 kts | 214° |
| 2026-04-25 09:38 | 47.94805 | 8.10751 | 34168 ft | 431 kts | 214° |
| 2026-04-25 09:39 | 47.89759 | 8.05913 | 34167 ft | 431 kts | 214° |
| 2026-04-25 09:39 | 47.84704 | 8.01094 | 34169 ft | 431 kts | 213° |
| 2026-04-25 09:40 | 47.77117 | 7.93881 | 34169 ft | 431 kts | 214° |
| 2026-04-25 09:40 | 47.72055 | 7.89076 | 34164 ft | 431 kts | 214° |
| 2026-04-25 09:41 | 47.66998 | 7.84284 | 34158 ft | 432 kts | 213° |
| 2026-04-25 09:41 | 47.61923 | 7.79491 | 34154 ft | 432 kts | 214° |
| 2026-04-25 09:42 | 47.56845 | 7.74708 | 34148 ft | 433 kts | 214° |
| 2026-04-25 09:42 | 47.51761 | 7.69931 | 34146 ft | 433 kts | 214° |
| 2026-04-25 09:43 | 47.46703 | 7.65178 | 34142 ft | 433 kts | 214° |
| 2026-04-25 09:43 | 47.41609 | 7.60403 | 34136 ft | 434 kts | 214° |
| 2026-04-25 09:44 | 47.36505 | 7.55643 | 34130 ft | 434 kts | 214° |
| 2026-04-25 09:44 | 47.31388 | 7.50882 | 34127 ft | 435 kts | 214° |
| 2026-04-25 09:45 | 47.26268 | 7.46114 | 34128 ft | 436 kts | 214° |
| 2026-04-25 09:45 | 47.21134 | 7.41356 | 34127 ft | 436 kts | 214° |
| 2026-04-25 09:46 | 47.16219 | 7.36165 | 34128 ft | 434 kts | 226° |
| 2026-04-25 09:46 | 47.12356 | 7.29366 | 34132 ft | 434 kts | 233° |
| 2026-04-25 09:47 | 47.08596 | 7.22439 | 34128 ft | 434 kts | 232° |
| 2026-04-25 09:47 | 47.04813 | 7.15529 | 34133 ft | 434 kts | 232° |
| 2026-04-25 09:48 | 47.01026 | 7.08612 | 34140 ft | 435 kts | 232° |
| 2026-04-25 09:48 | 46.97236 | 7.01680 | 34145 ft | 436 kts | 233° |
| 2026-04-25 09:49 | 46.93438 | 6.94755 | 34155 ft | 437 kts | 233° |
| 2026-04-25 09:49 | 46.89245 | 6.88323 | 34163 ft | 439 kts | 221° |
| 2026-04-25 09:50 | 46.84502 | 6.82675 | 34169 ft | 440 kts | 221° |
| 2026-04-25 09:50 | 46.79787 | 6.77072 | 34173 ft | 440 kts | 221° |
| 2026-04-25 09:51 | 46.75047 | 6.71436 | 34174 ft | 440 kts | 221° |
| 2026-04-25 09:51 | 46.70301 | 6.65810 | 34176 ft | 440 kts | 221° |
| 2026-04-25 09:52 | 46.65553 | 6.60192 | 34174 ft | 439 kts | 221° |
| 2026-04-25 09:52 | 46.60808 | 6.54589 | 34173 ft | 439 kts | 221° |
| 2026-04-25 09:53 | 46.56062 | 6.49001 | 34173 ft | 439 kts | 221° |
| 2026-04-25 09:53 | 46.51316 | 6.43429 | 34170 ft | 438 kts | 221° |
| 2026-04-25 09:54 | 46.46575 | 6.37885 | 34168 ft | 438 kts | 221° |
| 2026-04-25 09:54 | 46.41833 | 6.32342 | 34168 ft | 437 kts | 221° |
| 2026-04-25 09:55 | 46.37095 | 6.26816 | 34165 ft | 437 kts | 221° |
| 2026-04-25 09:55 | 46.32354 | 6.21314 | 34163 ft | 436 kts | 221° |
| 2026-04-25 09:56 | 46.27559 | 6.15913 | 34160 ft | 438 kts | 215° |
| 2026-04-25 09:56 | 46.21918 | 6.12499 | 34466 ft | 445 kts | 195° |
| 2026-04-25 09:57 | 46.18858 | 6.11772 | 34820 ft | 445 kts | 192° |
| 2026-04-25 09:57 | 46.15791 | 6.11114 | 35089 ft | 445 kts | 192° |
| 2026-04-25 09:57 | 46.09673 | 6.09752 | 35135 ft | 444 kts | 192° |
| 2026-04-25 09:58 | 46.03599 | 6.08383 | 35139 ft | 444 kts | 192° |
| 2026-04-25 09:58 | 45.97492 | 6.07033 | 35134 ft | 444 kts | 192° |
| 2026-04-25 09:59 | 45.91380 | 6.05693 | 35139 ft | 444 kts | 192° |
| 2026-04-25 09:59 | 45.85271 | 6.04349 | 35137 ft | 444 kts | 192° |
| 2026-04-25 10:00 | 45.79156 | 6.02989 | 35143 ft | 445 kts | 192° |
| 2026-04-25 10:00 | 45.73040 | 6.01625 | 35149 ft | 445 kts | 192° |
| 2026-04-25 10:01 | 45.66918 | 6.00277 | 35150 ft | 445 kts | 192° |
| 2026-04-25 10:01 | 45.60793 | 5.98942 | 35150 ft | 445 kts | 192° |
| 2026-04-25 10:02 | 45.54667 | 5.97601 | 35151 ft | 445 kts | 192° |
| 2026-04-25 10:02 | 45.48541 | 5.96263 | 35150 ft | 445 kts | 192° |
| 2026-04-25 10:03 | 45.42462 | 5.94650 | 35148 ft | 444 kts | 195° |
| 2026-04-25 10:03 | 45.36448 | 5.92659 | 35149 ft | 444 kts | 196° |
| 2026-04-25 10:04 | 45.30432 | 5.90653 | 35149 ft | 444 kts | 195° |
| 2026-04-25 10:04 | 45.24392 | 5.88755 | 35148 ft | 444 kts | 195° |
| 2026-04-25 10:05 | 45.18342 | 5.86904 | 35147 ft | 445 kts | 195° |
| 2026-04-25 10:05 | 45.12290 | 5.85042 | 35149 ft | 445 kts | 195° |
| 2026-04-25 10:06 | 45.06234 | 5.83174 | 35147 ft | 445 kts | 194° |
| 2026-04-25 10:06 | 45.00176 | 5.81305 | 35148 ft | 446 kts | 194° |
| 2026-04-25 10:07 | 44.94109 | 5.79427 | 35149 ft | 446 kts | 194° |
| 2026-04-25 10:07 | 44.88034 | 5.77565 | 35149 ft | 447 kts | 194° |
| 2026-04-25 10:08 | 44.81964 | 5.75709 | 35149 ft | 447 kts | 194° |
| 2026-04-25 10:08 | 44.75929 | 5.73868 | 35150 ft | 447 kts | 194° |
| 2026-04-25 10:09 | 44.69849 | 5.72021 | 35150 ft | 447 kts | 194° |
| 2026-04-25 10:09 | 44.63781 | 5.70166 | 35148 ft | 447 kts | 194° |
| 2026-04-25 10:10 | 44.57705 | 5.68317 | 35147 ft | 447 kts | 194° |
| 2026-04-25 10:10 | 44.51624 | 5.66478 | 35146 ft | 447 kts | 194° |
| 2026-04-25 10:11 | 44.45542 | 5.64637 | 35143 ft | 447 kts | 193° |
| 2026-04-25 10:11 | 44.39456 | 5.62800 | 35142 ft | 447 kts | 194° |
| 2026-04-25 10:12 | 44.33598 | 5.59949 | 35137 ft | 446 kts | 203° |
| 2026-04-25 10:13 | 44.24927 | 5.55188 | 35138 ft | 446 kts | 202° |
| 2026-04-25 10:13 | 44.19144 | 5.52027 | 35134 ft | 446 kts | 202° |
| 2026-04-25 10:14 | 44.13359 | 5.48872 | 35138 ft | 447 kts | 202° |
| 2026-04-25 10:14 | 44.07564 | 5.45722 | 35131 ft | 446 kts | 202° |
| 2026-04-25 10:15 | 44.01804 | 5.42594 | 35129 ft | 447 kts | 202° |
| 2026-04-25 10:15 | 43.96015 | 5.39457 | 35129 ft | 447 kts | 202° |
| 2026-04-25 10:16 | 43.90223 | 5.36327 | 35126 ft | 447 kts | 202° |
| 2026-04-25 10:16 | 43.84416 | 5.33203 | 35125 ft | 448 kts | 202° |
| 2026-04-25 10:17 | 43.78605 | 5.30074 | 35123 ft | 448 kts | 202° |
| 2026-04-25 10:17 | 43.72797 | 5.26942 | 35122 ft | 448 kts | 202° |
| 2026-04-25 10:18 | 43.66992 | 5.23820 | 35121 ft | 448 kts | 202° |
| 2026-04-25 10:18 | 43.61181 | 5.20703 | 35124 ft | 448 kts | 202° |
| 2026-04-25 10:19 | 43.55363 | 5.17604 | 35125 ft | 448 kts | 202° |
| 2026-04-25 10:19 | 43.49545 | 5.14510 | 35131 ft | 448 kts | 202° |
| 2026-04-25 10:20 | 43.44706 | 5.11931 | 35138 ft | 448 kts | 202° |
| 2026-04-25 10:20 | 43.38931 | 5.08705 | 35145 ft | 448 kts | 208° |
| 2026-04-25 10:21 | 43.33719 | 5.04038 | 35146 ft | 447 kts | 215° |
| 2026-04-25 10:21 | 43.28585 | 4.99194 | 35140 ft | 447 kts | 215° |
| 2026-04-25 10:22 | 43.23441 | 4.94373 | 35139 ft | 448 kts | 215° |
| 2026-04-25 10:22 | 43.18294 | 4.89561 | 35143 ft | 448 kts | 215° |
| 2026-04-25 10:23 | 43.13150 | 4.84749 | 35134 ft | 448 kts | 215° |
| 2026-04-25 10:23 | 43.07998 | 4.79926 | 35129 ft | 448 kts | 215° |
| 2026-04-25 10:24 | 43.02682 | 4.75463 | 35128 ft | 448 kts | 209° |
| 2026-04-25 10:24 | 42.97221 | 4.71324 | 35126 ft | 449 kts | 210° |
| 2026-04-25 10:25 | 42.91761 | 4.67185 | 35120 ft | 449 kts | 210° |
| 2026-04-25 10:25 | 42.86332 | 4.63079 | 35123 ft | 450 kts | 209° |
| 2026-04-25 10:26 | 42.80858 | 4.58946 | 35123 ft | 450 kts | 209° |
| 2026-04-25 10:26 | 42.75379 | 4.54824 | 35123 ft | 450 kts | 209° |
| 2026-04-25 10:27 | 42.69889 | 4.50714 | 35122 ft | 450 kts | 209° |
| 2026-04-25 10:27 | 42.64400 | 4.46597 | 35128 ft | 451 kts | 209° |
| 2026-04-25 10:28 | 42.58906 | 4.42478 | 35131 ft | 451 kts | 209° |
| 2026-04-25 10:28 | 42.53401 | 4.38367 | 35135 ft | 452 kts | 209° |
| 2026-04-25 10:29 | 42.47888 | 4.34258 | 35139 ft | 452 kts | 209° |
| 2026-04-25 10:29 | 42.42371 | 4.30158 | 35144 ft | 452 kts | 209° |
| 2026-04-25 10:30 | 42.36850 | 4.26066 | 35139 ft | 453 kts | 209° |
| 2026-04-25 10:30 | 42.31319 | 4.21964 | 35137 ft | 453 kts | 209° |
| 2026-04-25 10:31 | 42.25792 | 4.17876 | 35138 ft | 453 kts | 209° |
| 2026-04-25 10:31 | 42.20262 | 4.13801 | 35138 ft | 453 kts | 208° |
| 2026-04-25 10:32 | 42.14720 | 4.09732 | 35139 ft | 454 kts | 208° |
| 2026-04-25 10:32 | 42.09178 | 4.05658 | 35136 ft | 454 kts | 208° |
| 2026-04-25 10:33 | 42.03622 | 4.01584 | 35140 ft | 454 kts | 208° |
| 2026-04-25 10:33 | 41.98071 | 3.97517 | 35139 ft | 454 kts | 208° |
| 2026-04-25 10:34 | 41.92410 | 3.93753 | 35142 ft | 454 kts | 199° |
| 2026-04-25 10:34 | 41.86286 | 3.91952 | 35147 ft | 454 kts | 189° |
| 2026-04-25 10:35 | 41.80055 | 3.90521 | 35148 ft | 454 kts | 189° |
| 2026-04-25 10:35 | 41.73822 | 3.89084 | 35149 ft | 454 kts | 189° |
| 2026-04-25 10:36 | 41.67579 | 3.87650 | 35150 ft | 454 kts | 189° |
| 2026-04-25 10:36 | 41.61345 | 3.86226 | 35152 ft | 455 kts | 189° |
| 2026-04-25 10:37 | 41.55108 | 3.84789 | 35156 ft | 455 kts | 189° |
| 2026-04-25 10:37 | 41.48871 | 3.83349 | 35159 ft | 455 kts | 189° |
| 2026-04-25 10:38 | 41.42633 | 3.81915 | 35162 ft | 455 kts | 189° |
| 2026-04-25 10:38 | 41.36411 | 3.80492 | 34926 ft | 448 kts | 189° |
| 2026-04-25 10:38 | 41.33356 | 3.79799 | 34677 ft | 443 kts | 189° |
| 2026-04-25 10:39 | 41.30320 | 3.79114 | 34425 ft | 441 kts | 189° |
| 2026-04-25 10:39 | 41.27301 | 3.78431 | 34175 ft | 439 kts | 189° |
| 2026-04-25 10:39 | 41.24291 | 3.77750 | 33923 ft | 438 kts | 189° |
| 2026-04-25 10:39 | 41.21293 | 3.77070 | 33671 ft | 436 kts | 189° |
| 2026-04-25 10:40 | 41.18304 | 3.76388 | 33421 ft | 435 kts | 189° |
| 2026-04-25 10:40 | 41.15347 | 3.75584 | 33174 ft | 433 kts | 196° |
| 2026-04-25 10:40 | 41.12511 | 3.74261 | 32918 ft | 431 kts | 202° |
| 2026-04-25 10:40 | 41.09726 | 3.72807 | 32668 ft | 430 kts | 201° |
| 2026-04-25 10:41 | 41.06944 | 3.71369 | 32418 ft | 428 kts | 201° |
| 2026-04-25 10:41 | 41.04175 | 3.69946 | 32168 ft | 426 kts | 201° |
| 2026-04-25 10:41 | 41.01461 | 3.68556 | 31759 ft | 422 kts | 201° |
| 2026-04-25 10:41 | 40.98728 | 3.67156 | 31280 ft | 420 kts | 201° |
| 2026-04-25 10:42 | 40.96013 | 3.65768 | 30810 ft | 417 kts | 201° |
| 2026-04-25 10:42 | 40.93305 | 3.64384 | 30344 ft | 415 kts | 201° |
| 2026-04-25 10:42 | 40.90618 | 3.63008 | 29882 ft | 413 kts | 201° |
| 2026-04-25 10:42 | 40.87943 | 3.61640 | 29435 ft | 411 kts | 201° |
| 2026-04-25 10:43 | 40.85279 | 3.60276 | 28993 ft | 409 kts | 201° |
| 2026-04-25 10:43 | 40.82630 | 3.58915 | 28556 ft | 408 kts | 201° |
| 2026-04-25 10:43 | 40.79987 | 3.57557 | 28123 ft | 406 kts | 201° |
| 2026-04-25 10:43 | 40.77357 | 3.56211 | 27703 ft | 404 kts | 201° |
| 2026-04-25 10:44 | 40.74778 | 3.54896 | 27294 ft | 402 kts | 201° |
| 2026-04-25 10:44 | 40.72177 | 3.53571 | 26888 ft | 400 kts | 201° |
| 2026-04-25 10:44 | 40.69582 | 3.52247 | 26481 ft | 398 kts | 201° |
| 2026-04-25 10:44 | 40.66995 | 3.50930 | 26069 ft | 397 kts | 201° |
| 2026-04-25 10:45 | 40.64423 | 3.49622 | 25650 ft | 396 kts | 201° |
| 2026-04-25 10:45 | 40.61861 | 3.48320 | 25232 ft | 394 kts | 201° |
| 2026-04-25 10:45 | 40.59306 | 3.47023 | 24796 ft | 393 kts | 201° |
| 2026-04-25 10:45 | 40.56757 | 3.45731 | 24375 ft | 391 kts | 201° |
| 2026-04-25 10:46 | 40.54218 | 3.44445 | 23920 ft | 390 kts | 201° |
| 2026-04-25 10:46 | 40.51690 | 3.43165 | 23477 ft | 389 kts | 201° |
| 2026-04-25 10:46 | 40.49165 | 3.41887 | 23021 ft | 387 kts | 201° |
| 2026-04-25 10:46 | 40.46656 | 3.40619 | 22561 ft | 386 kts | 200° |
| 2026-04-25 10:47 | 40.44085 | 3.39651 | 22102 ft | 384 kts | 189° |
| 2026-04-25 10:47 | 40.41438 | 3.39390 | 21643 ft | 380 kts | 177° |
| 2026-04-25 10:47 | 40.38801 | 3.39544 | 21190 ft | 378 kts | 176° |
| 2026-04-25 10:47 | 40.36175 | 3.39701 | 20733 ft | 376 kts | 176° |
| 2026-04-25 10:48 | 40.33567 | 3.39852 | 20275 ft | 374 kts | 176° |
| 2026-04-25 10:48 | 40.30976 | 3.40000 | 19824 ft | 372 kts | 176° |
| 2026-04-25 10:48 | 40.28433 | 3.40144 | 19377 ft | 369 kts | 176° |
| 2026-04-25 10:48 | 40.25874 | 3.40289 | 18929 ft | 367 kts | 176° |
| 2026-04-25 10:49 | 40.23335 | 3.40432 | 18480 ft | 364 kts | 176° |
| 2026-04-25 10:49 | 40.21626 | 3.40529 | 18179 ft | 363 kts | 176° |
| 2026-04-25 10:49 | 40.18302 | 3.40719 | 17596 ft | 359 kts | 176° |
| 2026-04-25 10:49 | 40.15809 | 3.40861 | 17157 ft | 357 kts | 176° |
| 2026-04-25 10:50 | 40.13338 | 3.41001 | 16717 ft | 354 kts | 176° |
| 2026-04-25 10:50 | 40.10884 | 3.41138 | 16288 ft | 352 kts | 176° |
| 2026-04-25 10:50 | 40.08474 | 3.41269 | 16137 ft | 341 kts | 176° |
| 2026-04-25 10:50 | 40.06140 | 3.41396 | 15947 ft | 332 kts | 176° |
| 2026-04-25 10:51 | 40.03843 | 3.41525 | 15567 ft | 327 kts | 176° |
| 2026-04-25 10:51 | 40.01583 | 3.41651 | 14983 ft | 324 kts | 176° |
| 2026-04-25 10:51 | 39.99343 | 3.41776 | 14400 ft | 321 kts | 176° |
| 2026-04-25 10:51 | 39.97127 | 3.41899 | 13887 ft | 316 kts | 176° |
| 2026-04-25 10:52 | 39.94954 | 3.42023 | 13449 ft | 308 kts | 176° |
| 2026-04-25 10:52 | 39.92845 | 3.42140 | 13086 ft | 299 kts | 176° |
| 2026-04-25 10:52 | 39.90793 | 3.42256 | 12726 ft | 291 kts | 177° |
| 2026-04-25 10:52 | 39.88795 | 3.42369 | 12348 ft | 285 kts | 177° |
| 2026-04-25 10:53 | 39.86795 | 3.42484 | 11884 ft | 298 kts | 177° |
| 2026-04-25 10:53 | 39.84667 | 3.42405 | 11536 ft | 307 kts | 192° |
| 2026-04-25 10:53 | 39.82759 | 3.41316 | 11211 ft | 296 kts | 217° |
| 2026-04-25 10:53 | 39.81264 | 3.39554 | 10884 ft | 285 kts | 231° |
| 2026-04-25 10:54 | 39.80199 | 3.37432 | 10553 ft | 276 kts | 241° |
| 2026-04-25 10:54 | 39.79592 | 3.36002 | 10324 ft | 271 kts | 242° |
| 2026-04-25 10:54 | 39.78407 | 3.33144 | 9819 ft | 265 kts | 242° |
| 2026-04-25 10:54 | 39.77553 | 3.31074 | 9449 ft | 262 kts | 242° |
| 2026-04-25 10:55 | 39.76697 | 3.28995 | 9071 ft | 260 kts | 242° |
| 2026-04-25 10:55 | 39.75848 | 3.26931 | 8700 ft | 258 kts | 242° |
| 2026-04-25 10:55 | 39.75009 | 3.24862 | 8329 ft | 260 kts | 246° |
| 2026-04-25 10:55 | 39.74364 | 3.22670 | 7986 ft | 259 kts | 251° |
| 2026-04-25 10:56 | 39.73798 | 3.20468 | 7597 ft | 255 kts | 252° |
| 2026-04-25 10:56 | 39.73251 | 3.18294 | 7196 ft | 251 kts | 252° |
| 2026-04-25 10:56 | 39.72714 | 3.16145 | 6787 ft | 248 kts | 252° |
| 2026-04-25 10:56 | 39.72187 | 3.14031 | 6395 ft | 244 kts | 252° |
| 2026-04-25 10:57 | 39.71671 | 3.11953 | 6004 ft | 239 kts | 252° |
| 2026-04-25 10:57 | 39.71171 | 3.09927 | 5772 ft | 231 kts | 250° |
| 2026-04-25 10:57 | 39.70493 | 3.08022 | 5540 ft | 232 kts | 240° |
| 2026-04-25 10:57 | 39.69674 | 3.06222 | 5256 ft | 231 kts | 238° |
| 2026-04-25 10:58 | 39.68836 | 3.04447 | 4955 ft | 230 kts | 238° |
| 2026-04-25 10:58 | 39.68003 | 3.02673 | 4648 ft | 230 kts | 238° |
| 2026-04-25 10:58 | 39.67171 | 3.00896 | 4339 ft | 229 kts | 238° |
| 2026-04-25 10:58 | 39.66341 | 2.99126 | 4034 ft | 230 kts | 238° |
| 2026-04-25 10:59 | 39.65506 | 2.97346 | 3729 ft | 231 kts | 238° |
| 2026-04-25 10:59 | 39.64670 | 2.95564 | 3429 ft | 231 kts | 238° |
| 2026-04-25 10:59 | 39.63830 | 2.93775 | 3112 ft | 232 kts | 238° |
| 2026-04-25 10:59 | 39.62987 | 2.91981 | 2812 ft | 234 kts | 237° |
| 2026-04-25 11:00 | 39.62138 | 2.90173 | 2496 ft | 234 kts | 237° |
| 2026-04-25 11:00 | 39.61287 | 2.88363 | 2179 ft | 235 kts | 237° |
| 2026-04-25 11:00 | 39.60461 | 2.86606 | 1866 ft | 221 kts | 237° |
| 2026-04-25 11:00 | 39.59685 | 2.84956 | 1588 ft | 209 kts | 237° |
| 2026-04-25 11:01 | 39.58946 | 2.83387 | 1318 ft | 200 kts | 237° |
| 2026-04-25 11:01 | 39.58239 | 2.81889 | 1084 ft | 189 kts | 236° |
| 2026-04-25 11:01 | 39.57573 | 2.80476 | 810 ft | 179 kts | 236° |
| 2026-04-25 11:01 | 39.56967 | 2.79189 | 642 ft | 156 kts | 238° |
| 2026-04-25 11:02 | 39.56429 | 2.78064 | 389 ft | 140 kts | 237° |
| 2026-04-25 11:02 | 39.55935 | 2.77004 | 204 ft | 135 kts | 238° |
| 2026-04-25 11:02 | 39.55443 | 2.75954 | 38 ft | 131 kts | 238° |
| 2026-04-25 11:02 | 39.55032 | 2.75087 | 30 ft | 91 kts | 239° |
| 2026-04-25 11:03 | 39.54788 | 2.74572 | 30 ft | 51 kts | 238° |
| 2026-04-25 11:03 | 39.54631 | 2.74241 | 30 ft | 30 kts | 238° |
| 2026-04-25 11:03 | 39.54560 | 2.74025 | 30 ft | 26 kts | 259° |
| 2026-04-25 11:03 | 39.54550 | 2.73825 | 30 ft | 16 kts | 270° |
| 2026-04-25 11:04 | 39.54554 | 2.73712 | 30 ft | 12 kts | 283° |
| 2026-04-25 11:04 | 39.54584 | 2.73649 | 30 ft | 13 kts | 317° |
| 2026-04-25 11:04 | 39.54628 | 2.73568 | 30 ft | 8 kts | 285° |
| 2026-04-25 11:04 | 39.54652 | 2.73531 | 30 ft | 9 kts | 326° |
| 2026-04-25 11:05 | 39.54719 | 2.73481 | 30 ft | 8 kts | 329° |
| 2026-04-25 11:05 | 39.54751 | 2.73456 | 30 ft | 7 kts | 328° |
| 2026-04-25 11:05 | 39.54764 | 2.73413 | 30 ft | 6 kts | 249° |
| 2026-04-25 11:05 | 39.54744 | 2.73372 | 30 ft | 3 kts | 237° |
| 2026-04-25 11:06 | 39.54742 | 2.73367 | 30 ft | 0 kts | 237° |